Time,TemperatureF,DewpointF,PressureIn,WindDirection,WindDirectionDegrees,WindSpeedMPH,WindSpeedGustMPH,Humidity,HourlyPrecipIn,Conditions,Clouds,dailyrainin,SoftwareType,DateUTC
2013-04-08 00:00:00,51.3,36.6,29.95,SSW,200,3.6,6.7,57,0.00,,CLR,0.00,VWS V13.00,2013-04-08 04:00:00,
2013-04-08 00:01:00,51.3,36.6,29.95,SW,222,5.4,8.1,57,0.00,,CLR,0.00,VWS V13.00,2013-04-08 04:01:00,
2013-04-08 00:06:00,51.4,36.7,29.95,South,183,4.9,8.1,57,0.00,,CLR,0.00,VWS V13.00,2013-04-08 04:06:00,
2013-04-08 00:11:00,51.4,37.2,29.95,SW,219,6.3,8.1,58,0.00,,CLR,0.00,VWS V13.00,2013-04-08 04:11:00,
2013-04-08 00:17:00,51.3,37.0,29.95,SW,227,6.3,8.1,58,0.00,,CLR,0.00,VWS V13.00,2013-04-08 04:17:00,
2013-04-08 00:22:00,51.3,37.0,29.95,SW,220,7.2,7.2,58,0.00,,CLR,0.00,VWS V13.00,2013-04-08 04:22:00,
2013-04-08 00:27:00,51.3,37.0,29.95,SSW,201,3.1,7.2,58,0.00,,CLR,0.00,VWS V13.00,2013-04-08 04:27:00,
2013-04-08 00:32:00,51.4,37.2,29.95,South,178,5.4,7.2,58,0.00,,CLR,0.00,VWS V13.00,2013-04-08 04:32:00,
2013-04-08 00:37:00,51.6,37.3,29.95,SSW,211,4.0,7.2,58,0.00,,SCT120,0.00,VWS V13.00,2013-04-08 04:37:00,
2013-04-08 00:42:00,51.6,37.3,29.95,SW,214,4.0,4.9,58,0.00,,SCT120,0.00,VWS V13.00,2013-04-08 04:42:00,
2013-04-08 00:47:00,51.4,37.2,29.95,SSW,205,4.0,6.3,58,0.00,,SCT120,0.00,VWS V13.00,2013-04-08 04:47:00,
2013-04-08 00:52:00,51.3,37.0,29.95,SW,214,4.0,6.3,58,0.00,,SCT120,0.00,VWS V13.00,2013-04-08 04:52:00,
2013-04-08 00:57:00,50.9,36.7,29.95,SW,216,3.6,6.3,58,0.00,,SCT120,0.00,VWS V13.00,2013-04-08 04:57:00,
2013-04-08 01:02:00,50.5,36.8,29.95,SSW,210,3.6,3.6,59,0.00,,SCT120,0.00,VWS V13.00,2013-04-08 05:02:00,
2013-04-08 01:07:00,50.4,36.6,29.95,SW,233,3.6,4.9,59,0.00,,SCT120,0.00,VWS V13.00,2013-04-08 05:07:00,
2013-04-08 01:12:00,50.4,36.6,29.95,SW,226,2.7,5.4,59,0.00,,SCT120,0.00,VWS V13.00,2013-04-08 05:12:00,
2013-04-08 01:17:00,50.4,36.6,29.95,SW,229,2.7,5.4,59,0.00,,SCT120,0.00,VWS V13.00,2013-04-08 05:17:00,
2013-04-08 01:22:00,50.4,36.6,29.95,SSW,211,4.0,5.8,59,0.00,,SCT120,0.00,VWS V13.00,2013-04-08 05:22:00,
2013-04-08 01:28:00,50.7,37.4,29.95,SW,214,5.4,5.8,60,0.00,,SCT120,0.00,VWS V13.00,2013-04-08 05:28:00,
2013-04-08 01:33:00,50.9,37.5,29.95,SSW,200,6.3,8.1,60,0.00,,SCT120,0.00,VWS V13.00,2013-04-08 05:33:00,
2013-04-08 01:38:00,51.3,37.9,29.92,SW,217,5.8,8.1,60,0.00,,SCT110,0.00,VWS V13.00,2013-04-08 05:38:00,
2013-04-08 01:43:00,51.4,37.6,29.92,SW,216,4.0,5.8,59,0.00,,SCT110,0.00,VWS V13.00,2013-04-08 05:43:00,
2013-04-08 01:48:00,51.4,37.6,29.92,SW,214,5.8,6.3,59,0.00,,SCT110,0.00,VWS V13.00,2013-04-08 05:48:00,
2013-04-08 01:53:00,51.4,37.6,29.95,SW,214,4.9,6.7,59,0.00,,SCT110,0.00,VWS V13.00,2013-04-08 05:53:00,
2013-04-08 01:58:00,51.4,37.6,29.95,WSW,240,5.8,6.7,59,0.00,,SCT110,0.00,VWS V13.00,2013-04-08 05:58:00,
2013-04-08 02:03:00,51.4,37.6,29.95,SW,224,5.8,6.3,59,0.00,,SCT110,0.00,VWS V13.00,2013-04-08 06:03:00,
2013-04-08 02:08:00,51.4,38.0,29.92,SW,230,5.8,6.3,60,0.00,,SCT110,0.00,VWS V13.00,2013-04-08 06:08:00,
2013-04-08 02:13:00,51.3,37.9,29.92,SW,236,4.9,6.3,60,0.00,,SCT110,0.00,VWS V13.00,2013-04-08 06:13:00,
2013-04-08 02:18:00,51.3,37.9,29.92,SW,219,5.4,7.6,60,0.00,,SCT110,0.00,VWS V13.00,2013-04-08 06:18:00,
2013-04-08 02:23:00,51.3,37.9,29.92,SW,236,5.8,8.3,60,0.00,,SCT110,0.00,VWS V13.00,2013-04-08 06:23:00,
2013-04-08 02:28:00,51.1,37.7,29.92,WSW,240,5.8,8.3,60,0.00,,SCT110,0.00,VWS V13.00,2013-04-08 06:28:00,
2013-04-08 02:33:00,51.1,37.7,29.92,WSW,240,5.8,8.3,60,0.00,,SCT110,0.00,VWS V13.00,2013-04-08 06:33:00,
2013-04-08 02:38:00,51.1,37.7,29.92,SSW,213,3.6,8.3,60,0.00,,OVC110,0.00,VWS V13.00,2013-04-08 06:38:00,
2013-04-08 02:43:00,50.9,37.5,29.92,SSW,208,3.6,5.8,60,0.00,,OVC110,0.00,VWS V13.00,2013-04-08 06:43:00,
2013-04-08 02:48:00,51.1,38.1,29.92,SW,216,6.3,8.1,61,0.00,,OVC110,0.00,VWS V13.00,2013-04-08 06:48:00,
2013-04-08 02:53:00,50.9,38.0,29.92,SW,229,4.9,8.1,61,0.00,,OVC110,0.00,VWS V13.00,2013-04-08 06:53:00,
2013-04-08 02:58:00,50.7,37.8,29.92,SW,219,5.8,8.1,61,0.00,,OVC110,0.00,VWS V13.00,2013-04-08 06:58:00,
2013-04-08 03:03:00,50.5,37.6,29.92,West,261,4.0,5.4,61,0.00,,OVC110,0.00,VWS V13.00,2013-04-08 07:03:00,
2013-04-08 03:09:00,50.4,37.4,29.92,WSW,258,2.7,5.4,61,0.00,,OVC110,0.00,VWS V13.00,2013-04-08 07:09:00,
2013-04-08 03:14:00,50.2,37.3,29.92,SSW,211,4.0,5.8,61,0.00,,OVC110,0.00,VWS V13.00,2013-04-08 07:14:00,
2013-04-08 03:19:00,50.0,37.5,29.92,West,278,2.2,5.8,62,0.00,,OVC110,0.00,VWS V13.00,2013-04-08 07:19:00,
2013-04-08 03:24:00,49.8,37.3,29.92,SW,229,2.2,3.6,62,0.00,,OVC110,0.00,VWS V13.00,2013-04-08 07:24:00,
2013-04-08 03:29:00,49.8,37.8,29.92,WSW,238,2.7,4.9,63,0.00,,OVC110,0.00,VWS V13.00,2013-04-08 07:29:00,
2013-04-08 03:34:00,49.5,37.4,29.92,West,274,0.0,4.9,63,0.00,,OVC110,0.00,VWS V13.00,2013-04-08 07:34:00,
2013-04-08 03:39:00,49.1,37.1,29.92,West,275,0.0,4.9,63,0.00,,CLR,0.00,VWS V13.00,2013-04-08 07:39:00,
2013-04-08 03:44:00,48.9,37.3,29.92,West,275,0.0,0.0,64,0.00,,CLR,0.00,VWS V13.00,2013-04-08 07:44:00,
2013-04-08 03:49:00,48.7,37.1,29.92,West,275,0.0,0.0,64,0.00,,CLR,0.00,VWS V13.00,2013-04-08 07:49:00,
2013-04-08 03:54:00,48.6,37.0,29.95,SW,230,0.0,3.1,64,0.00,,CLR,0.00,VWS V13.00,2013-04-08 07:54:00,
2013-04-08 03:59:00,48.0,36.8,29.95,SW,230,0.0,3.1,65,0.00,,CLR,0.00,VWS V13.00,2013-04-08 07:59:00,
2013-04-08 04:04:00,48.0,36.8,29.95,SW,230,0.0,2.7,65,0.00,,CLR,0.00,VWS V13.00,2013-04-08 08:04:00,
2013-04-08 04:09:00,47.7,36.9,29.95,SW,230,0.0,2.7,66,0.00,,CLR,0.00,VWS V13.00,2013-04-08 08:09:00,
2013-04-08 04:14:00,47.7,36.9,29.95,SW,230,0.0,2.7,66,0.00,,CLR,0.00,VWS V13.00,2013-04-08 08:14:00,
2013-04-08 04:19:00,47.8,37.4,29.95,SW,230,0.0,2.7,67,0.00,,CLR,0.00,VWS V13.00,2013-04-08 08:19:00,
2013-04-08 04:25:00,47.3,36.9,29.95,SW,230,0.0,0.0,67,0.00,,CLR,0.00,VWS V13.00,2013-04-08 08:25:00,
2013-04-08 04:30:00,47.1,36.7,29.95,West,264,0.0,4.0,67,0.00,,CLR,0.00,VWS V13.00,2013-04-08 08:30:00,
2013-04-08 04:35:00,46.6,36.2,29.95,West,264,0.0,4.0,67,0.00,,CLR,0.00,VWS V13.00,2013-04-08 08:35:00,
2013-04-08 04:40:00,46.6,36.2,29.95,West,264,0.0,0.0,67,0.00,,CLR,0.00,VWS V13.00,2013-04-08 08:40:00,
2013-04-08 04:46:00,46.0,36.1,29.95,West,264,0.0,3.6,68,0.00,,CLR,0.00,VWS V13.00,2013-04-08 08:46:00,
2013-04-08 04:51:00,45.9,36.3,29.95,West,264,0.0,3.6,69,0.00,,CLR,0.00,VWS V13.00,2013-04-08 08:51:00,
2013-04-08 04:56:00,45.7,36.1,29.95,West,264,0.0,3.6,69,0.00,,CLR,0.00,VWS V13.00,2013-04-08 08:56:00,
2013-04-08 05:01:00,45.3,36.1,29.95,West,264,2.2,2.7,70,0.00,,CLR,0.00,VWS V13.00,2013-04-08 09:01:00,
2013-04-08 05:06:00,45.1,36.0,29.95,West,264,2.2,3.1,70,0.00,,CLR,0.00,VWS V13.00,2013-04-08 09:06:00,
2013-04-08 05:12:00,44.8,35.6,29.95,West,264,3.6,3.6,70,0.00,,CLR,0.00,VWS V13.00,2013-04-08 09:12:00,
2013-04-08 05:17:00,44.8,36.0,29.95,WSW,248,2.7,3.6,71,0.00,,CLR,0.00,VWS V13.00,2013-04-08 09:17:00,
2013-04-08 05:22:00,44.8,36.0,29.95,WSW,248,0.0,0.0,71,0.00,,CLR,0.00,VWS V13.00,2013-04-08 09:22:00,
2013-04-08 05:27:00,44.8,36.0,29.95,WSW,248,0.0,3.1,71,0.00,,CLR,0.00,VWS V13.00,2013-04-08 09:27:00,
2013-04-08 05:32:00,45.1,36.7,29.95,WSW,248,0.0,3.1,72,0.00,,CLR,0.00,VWS V13.00,2013-04-08 09:32:00,
2013-04-08 05:37:00,45.3,36.8,29.95,WSW,248,2.2,3.1,72,0.00,,CLR,0.00,VWS V13.00,2013-04-08 09:37:00,
2013-04-08 05:42:00,45.1,36.7,29.95,WSW,248,2.7,3.1,72,0.00,,CLR,0.00,VWS V13.00,2013-04-08 09:42:00,
2013-04-08 05:47:00,45.3,36.8,29.95,WSW,248,2.2,3.1,72,0.00,,CLR,0.00,VWS V13.00,2013-04-08 09:47:00,
2013-04-08 05:52:00,45.5,37.4,29.95,WSW,248,0.0,3.1,73,0.00,,CLR,0.00,VWS V13.00,2013-04-08 09:52:00,
2013-04-08 05:57:00,45.1,36.7,29.95,WSW,248,0.0,3.1,72,0.00,,CLR,0.00,VWS V13.00,2013-04-08 09:57:00,
2013-04-08 06:02:00,44.6,36.2,29.95,WSW,248,0.0,0.0,72,0.00,,CLR,0.00,VWS V13.00,2013-04-08 10:02:00,
2013-04-08 06:07:00,44.4,36.0,29.98,WSW,248,0.0,0.0,72,0.00,,CLR,0.00,VWS V13.00,2013-04-08 10:07:00,
2013-04-08 06:12:00,44.2,36.2,29.98,WSW,248,0.0,0.0,73,0.00,,CLR,0.00,VWS V13.00,2013-04-08 10:12:00,
2013-04-08 06:17:00,44.1,36.3,29.98,WSW,248,0.0,0.0,74,0.00,,CLR,0.00,VWS V13.00,2013-04-08 10:17:00,
2013-04-08 06:22:00,43.9,36.5,29.98,WSW,248,0.0,0.0,75,0.00,,CLR,0.00,VWS V13.00,2013-04-08 10:22:00,
2013-04-08 06:27:00,43.7,36.3,29.98,WSW,248,0.0,0.0,75,0.00,,CLR,0.00,VWS V13.00,2013-04-08 10:27:00,
2013-04-08 06:32:00,43.7,36.3,29.98,WSW,248,0.0,0.0,75,0.00,,CLR,0.00,VWS V13.00,2013-04-08 10:32:00,
2013-04-08 06:37:00,43.5,36.1,29.98,WSW,248,0.0,0.0,75,0.00,,CLR,0.00,VWS V13.00,2013-04-08 10:37:00,
2013-04-08 06:43:00,43.3,35.6,29.98,WSW,248,0.0,0.0,74,0.00,,CLR,0.00,VWS V13.00,2013-04-08 10:43:00,
2013-04-08 06:48:00,43.3,35.6,29.98,WSW,248,0.0,0.0,74,0.00,,CLR,0.00,VWS V13.00,2013-04-08 10:48:00,
2013-04-08 06:53:00,43.5,36.1,29.98,WSW,248,0.0,0.0,75,0.00,,CLR,0.00,VWS V13.00,2013-04-08 10:53:00,
2013-04-08 06:58:00,43.5,36.1,29.98,WSW,248,0.0,0.0,75,0.00,,CLR,0.00,VWS V13.00,2013-04-08 10:58:00,
2013-04-08 07:03:00,43.7,36.3,29.98,WSW,248,0.0,0.0,75,0.00,,CLR,0.00,VWS V13.00,2013-04-08 11:03:00,
2013-04-08 07:08:00,43.7,36.3,29.98,WSW,248,0.0,0.0,75,0.00,,CLR,0.00,VWS V13.00,2013-04-08 11:08:00,
2013-04-08 07:13:00,43.9,36.5,29.98,WSW,248,0.0,0.0,75,0.00,,CLR,0.00,VWS V13.00,2013-04-08 11:13:00,
2013-04-08 07:18:00,44.2,37.2,29.98,WSW,248,0.0,0.0,76,0.00,,CLR,0.00,VWS V13.00,2013-04-08 11:18:00,
2013-04-08 07:23:00,44.6,37.8,30.01,WSW,248,0.0,0.0,77,0.00,,CLR,0.00,VWS V13.00,2013-04-08 11:23:00,
2013-04-08 07:28:00,44.8,38.3,30.01,WSW,248,0.0,0.0,78,0.00,,CLR,0.00,VWS V13.00,2013-04-08 11:28:00,
2013-04-08 07:33:00,45.1,38.7,30.01,WSW,248,0.0,0.0,78,0.00,,CLR,0.00,VWS V13.00,2013-04-08 11:33:00,
2013-04-08 07:38:00,45.3,38.9,30.01,WSW,248,0.0,0.0,78,0.00,,CLR,0.00,VWS V13.00,2013-04-08 11:38:00,
2013-04-08 07:43:00,45.7,39.5,30.01,WSW,248,0.0,0.0,79,0.00,,CLR,0.00,VWS V13.00,2013-04-08 11:43:00,
2013-04-08 07:48:00,46.6,40.1,30.01,NE,49,0.0,0.0,78,0.00,,CLR,0.00,VWS V13.00,2013-04-08 11:48:00,
2013-04-08 07:53:00,47.1,40.0,30.01,NE,50,3.1,4.0,76,0.00,,CLR,0.00,VWS V13.00,2013-04-08 11:53:00,
2013-04-08 07:58:00,47.8,40.0,30.01,NE,50,3.1,4.0,74,0.00,,CLR,0.00,VWS V13.00,2013-04-08 11:58:00,
2013-04-08 08:04:00,48.7,40.1,30.01,NE,47,4.0,4.0,72,0.00,,CLR,0.00,VWS V13.00,2013-04-08 12:04:00,
2013-04-08 08:09:00,49.5,39.7,30.01,NE,36,3.6,4.0,69,0.00,,CLR,0.00,VWS V13.00,2013-04-08 12:09:00,
2013-04-08 08:14:00,50.2,38.9,30.01,NE,41,4.5,5.8,65,0.00,,BKN100,0.00,VWS V13.00,2013-04-08 12:14:00,
2013-04-08 08:19:00,50.7,38.6,30.01,ENE,75,2.7,5.8,63,0.00,,BKN100,0.00,VWS V13.00,2013-04-08 12:19:00,
2013-04-08 08:24:00,51.1,38.1,30.01,East,82,3.1,4.9,61,0.00,,CLR,0.00,VWS V13.00,2013-04-08 12:24:00,
2013-04-08 08:29:00,52.0,37.7,30.01,NE,54,4.9,6.3,58,0.00,,CLR,0.00,VWS V13.00,2013-04-08 12:29:00,
2013-04-08 08:34:00,52.9,38.5,30.01,NE,54,3.6,6.3,58,0.00,,CLR,0.00,VWS V13.00,2013-04-08 12:34:00,
2013-04-08 08:40:00,54.3,38.5,30.01,ENE,64,3.1,6.3,55,0.00,,CLR,0.00,VWS V13.00,2013-04-08 12:40:00,
2013-04-08 08:44:00,56.1,39.2,30.01,ENE,64,0.0,3.1,53,0.00,,CLR,0.00,VWS V13.00,2013-04-08 12:44:00,
2013-04-08 08:50:00,58.1,40.1,30.01,SSW,196,2.2,3.6,51,0.00,,CLR,0.00,VWS V13.00,2013-04-08 12:50:00,
2013-04-08 08:55:00,57.4,37.9,30.01,ENE,68,3.1,4.0,48,0.00,,CLR,0.00,VWS V13.00,2013-04-08 12:55:00,
2013-04-08 09:00:00,57.4,37.9,30.01,NE,41,4.0,4.0,48,0.00,,CLR,0.00,VWS V13.00,2013-04-08 13:00:00,
2013-04-08 09:05:00,57.4,37.3,30.01,ENE,57,3.6,4.0,47,0.00,,CLR,0.00,VWS V13.00,2013-04-08 13:05:00,
2013-04-08 09:10:00,57.7,37.1,30.01,ENE,70,4.0,4.9,46,0.00,,CLR,0.00,VWS V13.00,2013-04-08 13:10:00,
2013-04-08 09:15:00,57.6,36.4,30.01,East,82,4.0,5.4,45,0.00,,CLR,0.00,VWS V13.00,2013-04-08 13:15:00,
2013-04-08 09:20:00,57.7,36.6,30.01,ENE,62,2.7,5.8,45,0.00,,CLR,0.00,VWS V13.00,2013-04-08 13:20:00,
2013-04-08 09:25:00,58.3,37.0,30.01,ENE,64,3.1,4.9,45,0.00,,CLR,0.00,VWS V13.00,2013-04-08 13:25:00,
2013-04-08 09:30:00,58.8,37.5,30.01,NE,47,2.7,4.9,45,0.00,,CLR,0.00,VWS V13.00,2013-04-08 13:30:00,
2013-04-08 09:36:00,58.5,36.7,30.01,NE,41,3.6,4.9,44,0.00,,-RA,0.00,VWS V13.00,2013-04-08 13:36:00,
2013-04-08 09:41:00,58.8,37.0,30.04,NE,56,4.0,4.0,44,0.00,,-RA,0.00,VWS V13.00,2013-04-08 13:41:00,
2013-04-08 09:46:00,59.5,37.0,30.04,SE,125,2.7,4.0,43,0.00,,-RA,0.00,VWS V13.00,2013-04-08 13:46:00,
2013-04-08 09:52:00,60.1,36.9,30.04,ENE,59,2.2,4.0,42,0.00,,-RA,0.00,VWS V13.00,2013-04-08 13:52:00,
2013-04-08 09:57:00,60.4,37.3,30.04,ENE,59,0.0,4.0,42,0.00,,-RA,0.00,VWS V13.00,2013-04-08 13:57:00,
2013-04-08 10:02:00,60.6,36.8,30.04,NE,53,2.7,3.6,41,0.00,,-RA,0.00,VWS V13.00,2013-04-08 14:02:00,
2013-04-08 10:07:00,60.6,36.8,30.04,East,89,3.6,4.0,41,0.00,,-RA,0.00,VWS V13.00,2013-04-08 14:07:00,
2013-04-08 10:12:00,61.0,36.5,30.04,NE,35,2.7,4.0,40,0.00,,-RA,0.00,VWS V13.00,2013-04-08 14:12:00,
2013-04-08 10:17:00,61.7,37.2,30.04,NE,35,2.7,4.0,40,0.00,,-RA,0.00,VWS V13.00,2013-04-08 14:17:00,
2013-04-08 10:22:00,61.5,36.3,30.04,WSW,255,2.7,4.0,39,0.00,,-RA,0.00,VWS V13.00,2013-04-08 14:22:00,
2013-04-08 10:27:00,61.9,36.7,30.04,NW,319,0.0,5.4,39,0.00,,-RA,0.00,VWS V13.00,2013-04-08 14:27:00,
2013-04-08 10:32:00,62.4,37.2,30.04,ESE,109,3.6,5.4,39,0.00,,-RA,0.00,VWS V13.00,2013-04-08 14:32:00,
2013-04-08 10:37:00,63.1,37.1,30.04,WSW,249,0.0,5.4,38,0.00,,-RA,0.00,VWS V13.00,2013-04-08 14:37:00,
2013-04-08 10:42:00,63.1,36.5,30.04,North,0,3.6,5.4,37,0.00,,-RA,0.00,VWS V13.00,2013-04-08 14:42:00,
2013-04-08 10:47:00,64.4,36.9,30.04,North,349,5.4,9.2,36,0.00,,-RA,0.00,VWS V13.00,2013-04-08 14:47:00,
2013-04-08 10:52:00,65.1,37.5,30.04,East,83,4.0,9.2,36,0.00,,-RA,0.00,VWS V13.00,2013-04-08 14:52:00,
2013-04-08 10:57:00,65.5,37.1,30.04,NE,41,3.1,9.2,35,0.00,,-RA,0.00,VWS V13.00,2013-04-08 14:57:00,
2013-04-08 11:02:00,66.2,37.8,30.04,SW,227,4.0,7.6,35,0.00,,-RA,0.00,VWS V13.00,2013-04-08 15:02:00,
2013-04-08 11:07:00,66.2,37.0,30.04,NNE,26,3.1,9.6,34,0.00,,-RA,0.00,VWS V13.00,2013-04-08 15:07:00,
2013-04-08 11:13:00,66.4,37.2,30.04,SW,230,2.7,9.6,34,0.00,,-RA,0.00,VWS V13.00,2013-04-08 15:13:00,
2013-04-08 11:18:00,66.9,37.7,30.04,North,357,2.7,9.6,34,0.00,,-RA,0.00,VWS V13.00,2013-04-08 15:18:00,
2013-04-08 11:23:00,67.5,38.1,30.04,West,268,3.6,8.3,34,0.00,,-RA,0.00,VWS V13.00,2013-04-08 15:23:00,
2013-04-08 11:28:00,67.6,38.3,30.04,WNW,286,5.4,9.6,34,0.00,,-RA,0.00,VWS V13.00,2013-04-08 15:28:00,
2013-04-08 11:33:00,67.8,38.5,30.04,SE,136,0.0,9.6,34,0.00,,-RA,0.00,VWS V13.00,2013-04-08 15:33:00,
2013-04-08 11:38:00,68.0,37.8,30.04,NNE,22,4.9,9.6,33,0.00,,-RA,0.00,VWS V13.00,2013-04-08 15:38:00,
2013-04-08 11:43:00,67.6,37.5,30.04,WSW,248,4.5,7.6,33,0.00,,-RA,0.00,VWS V13.00,2013-04-08 15:43:00,
2013-04-08 11:48:00,68.5,38.3,30.04,NE,45,3.6,7.6,33,0.00,,-RA,0.00,VWS V13.00,2013-04-08 15:48:00,
2013-04-08 11:53:00,68.4,38.2,30.04,SW,231,0.0,7.6,33,0.00,,-RA,0.00,VWS V13.00,2013-04-08 15:53:00,
2013-04-08 11:58:00,68.9,38.6,30.04,NNW,346,3.6,7.6,33,0.00,,-RA,0.00,VWS V13.00,2013-04-08 15:58:00,
2013-04-08 12:03:00,68.9,38.6,30.04,WSW,258,3.1,8.3,33,0.00,,-RA,0.00,VWS V13.00,2013-04-08 16:03:00,
2013-04-08 12:08:00,69.8,38.6,30.04,WNW,296,2.7,8.3,32,0.00,,-RA,0.00,VWS V13.00,2013-04-08 16:08:00,
2013-04-08 12:13:00,70.7,39.4,30.04,West,259,2.7,8.3,32,0.00,,-RA,0.00,VWS V13.00,2013-04-08 16:13:00,
2013-04-08 12:18:00,69.8,38.6,30.04,NW,317,0.0,8.3,32,0.00,,-RA,0.00,VWS V13.00,2013-04-08 16:18:00,
2013-04-08 12:24:00,70.7,39.4,30.04,NW,316,3.6,10.1,32,0.00,,-RA,0.00,VWS V13.00,2013-04-08 16:24:00,
2013-04-08 12:29:00,71.6,39.4,30.04,NW,313,3.1,10.1,31,0.00,,-RA,0.00,VWS V13.00,2013-04-08 16:29:00,
2013-04-08 12:34:00,71.1,39.7,30.04,ENE,62,4.0,10.1,32,0.00,,-RA,0.00,VWS V13.00,2013-04-08 16:34:00,
2013-04-08 12:39:00,71.6,39.4,30.01,SSE,167,5.4,10.1,31,0.00,,-RA,0.00,VWS V13.00,2013-04-08 16:39:00,
2013-04-08 12:44:00,71.1,39.7,30.01,WSW,240,4.9,7.6,32,0.00,,-RA,0.00,VWS V13.00,2013-04-08 16:44:00,
2013-04-08 12:50:00,72.1,39.9,30.01,WSW,250,4.9,8.1,31,0.00,,-RA,0.00,VWS V13.00,2013-04-08 16:50:00,
2013-04-08 12:55:00,74.1,40.7,30.01,SSW,211,4.0,8.1,30,0.00,,-RA,0.00,VWS V13.00,2013-04-08 16:55:00,
2013-04-08 13:00:00,74.5,41.0,30.01,West,260,2.7,8.1,30,0.00,,-RA,0.00,VWS V13.00,2013-04-08 17:00:00,
2013-04-08 13:05:00,74.1,39.0,30.01,West,268,3.6,14.1,28,0.00,,-RA,0.00,VWS V13.00,2013-04-08 17:05:00,
2013-04-08 13:10:00,73.2,38.2,30.01,SW,231,5.4,14.1,28,0.00,,-RA,0.00,VWS V13.00,2013-04-08 17:10:00,
2013-04-08 13:15:00,74.5,39.3,30.01,West,265,4.0,14.1,28,0.00,,-RA,0.00,VWS V13.00,2013-04-08 17:15:00,
2013-04-08 13:20:00,74.7,38.5,30.01,South,186,2.2,14.1,27,0.00,,-RA,0.00,VWS V13.00,2013-04-08 17:20:00,
2013-04-08 13:25:00,75.6,39.3,30.01,WSW,255,3.1,5.8,27,0.00,,-RA,0.00,VWS V13.00,2013-04-08 17:25:00,
2013-04-08 13:30:00,75.6,39.3,30.01,South,173,3.1,7.6,27,0.00,,-RA,0.00,VWS V13.00,2013-04-08 17:30:00,
2013-04-08 13:35:00,76.6,40.2,30.01,SSE,156,2.7,7.6,27,0.00,,-RA,0.00,VWS V13.00,2013-04-08 17:35:00,
2013-04-08 13:40:00,76.5,39.1,30.01,West,259,3.6,3.6,26,0.00,,-RA,0.00,VWS V13.00,2013-04-08 17:40:00,
2013-04-08 13:45:00,76.5,39.1,30.01,SW,226,3.6,8.1,26,0.00,,-RA,0.00,VWS V13.00,2013-04-08 17:45:00,
2013-04-08 13:50:00,76.3,37.9,30.01,South,176,4.9,8.1,25,0.00,,-RA,0.00,VWS V13.00,2013-04-08 17:50:00,
2013-04-08 13:55:00,76.3,37.9,29.98,SW,226,6.3,8.1,25,0.00,,-RA,0.00,VWS V13.00,2013-04-08 17:55:00,
2013-04-08 14:00:00,76.8,38.4,29.98,SSW,197,4.9,4.9,25,0.00,,-RA,0.00,VWS V13.00,2013-04-08 18:00:00,
2013-04-08 14:05:00,77.2,37.6,29.98,SSW,192,4.0,8.7,24,0.00,,-RA,0.00,VWS V13.00,2013-04-08 18:05:00,
2013-04-08 14:11:00,77.2,37.6,29.98,South,172,4.0,10.5,24,0.00,,-RA,0.00,VWS V13.00,2013-04-08 18:11:00,
2013-04-08 14:16:00,76.8,37.3,29.98,West,277,7.6,10.5,24,0.00,,-RA,0.00,VWS V13.00,2013-04-08 18:16:00,
2013-04-08 14:21:00,76.1,36.7,29.98,SW,225,5.8,10.5,24,0.00,,-RA,0.00,VWS V13.00,2013-04-08 18:21:00,
2013-04-08 14:26:00,76.1,36.7,29.98,West,274,4.0,10.5,24,0.00,,-RA,0.00,VWS V13.00,2013-04-08 18:26:00,
2013-04-08 14:31:00,75.6,36.3,29.98,WSW,240,8.7,10.5,24,0.00,,-RA,0.00,VWS V13.00,2013-04-08 18:31:00,
2013-04-08 14:36:00,75.6,36.3,29.98,South,178,4.0,10.5,24,0.00,,-RA,0.00,VWS V13.00,2013-04-08 18:36:00,
2013-04-08 14:42:00,76.6,37.2,29.98,SSW,207,5.8,8.3,24,0.00,,-RA,0.00,VWS V13.00,2013-04-08 18:42:00,
2013-04-08 14:47:00,77.0,37.5,29.98,South,177,6.3,8.3,24,0.00,,-RA,0.00,VWS V13.00,2013-04-08 18:47:00,
2013-04-08 14:52:00,77.2,37.6,29.98,WSW,257,3.6,8.3,24,0.00,,-RA,0.00,VWS V13.00,2013-04-08 18:52:00,
2013-04-08 14:57:00,77.4,37.8,29.98,SE,128,2.2,8.3,24,0.00,,-RA,0.00,VWS V13.00,2013-04-08 18:57:00,
2013-04-08 15:02:00,77.5,36.8,29.98,SSE,165,4.9,4.9,23,0.00,,-RA,0.00,VWS V13.00,2013-04-08 19:02:00,
2013-04-08 15:07:00,78.3,37.5,29.98,SW,227,5.8,10.1,23,0.00,,-RA,0.00,VWS V13.00,2013-04-08 19:07:00,
2013-04-08 15:12:00,79.2,38.2,29.98,NW,312,3.6,10.1,23,0.00,,-RA,0.00,VWS V13.00,2013-04-08 19:12:00,
2013-04-08 15:17:00,78.4,37.6,29.98,NW,307,5.4,10.1,23,0.00,,-RA,0.00,VWS V13.00,2013-04-08 19:17:00,
2013-04-08 15:22:00,78.3,37.5,29.95,SSW,199,6.7,7.6,23,0.00,,-RA,0.00,VWS V13.00,2013-04-08 19:22:00,
2013-04-08 15:27:00,78.1,37.3,29.95,WNW,290,6.3,8.3,23,0.00,,-RA,0.00,VWS V13.00,2013-04-08 19:27:00,
2013-04-08 15:32:00,78.1,37.3,29.95,West,262,8.1,8.3,23,0.00,,-RA,0.00,VWS V13.00,2013-04-08 19:32:00,
2013-04-08 15:37:00,78.4,36.5,29.95,West,265,5.8,8.3,22,0.00,,-RA,0.00,VWS V13.00,2013-04-08 19:37:00,
2013-04-08 15:42:00,78.6,36.6,29.95,South,182,8.1,8.1,22,0.00,,-RA,0.00,VWS V13.00,2013-04-08 19:42:00,
2013-04-08 15:47:00,78.4,36.5,29.95,SW,222,8.7,10.1,22,0.00,,-RA,0.00,VWS V13.00,2013-04-08 19:47:00,
2013-04-08 15:52:00,77.9,36.0,29.95,SW,229,2.2,10.1,22,0.00,,-RA,0.00,VWS V13.00,2013-04-08 19:52:00,
2013-04-08 15:58:00,77.9,36.0,29.95,SW,226,5.8,10.1,22,0.00,,-RA,0.00,VWS V13.00,2013-04-08 19:58:00,
2013-04-08 16:03:00,77.9,36.0,29.95,South,181,6.3,8.7,22,0.00,,CLR,0.00,VWS V13.00,2013-04-08 20:03:00,
2013-04-08 16:08:00,78.4,36.5,29.95,SW,218,5.8,8.7,22,0.00,,-RA,0.00,VWS V13.00,2013-04-08 20:08:00,
2013-04-08 16:13:00,78.4,36.5,29.95,South,190,6.3,8.7,22,0.00,,-RA,0.00,VWS V13.00,2013-04-08 20:13:00,
2013-04-08 16:18:00,77.7,35.9,29.95,SSE,164,3.6,8.7,22,0.00,,-RA,0.00,VWS V13.00,2013-04-08 20:18:00,
2013-04-08 16:23:00,77.7,35.9,29.95,WNW,286,6.3,8.1,22,0.00,,-RA,0.00,VWS V13.00,2013-04-08 20:23:00,
2013-04-08 16:28:00,77.4,35.6,29.95,NW,309,5.8,8.1,22,0.00,,-RA,0.00,VWS V13.00,2013-04-08 20:28:00,
2013-04-08 16:33:00,76.8,36.2,29.95,SSW,200,3.1,9.6,23,0.00,,-RA,0.00,VWS V13.00,2013-04-08 20:33:00,
2013-04-08 16:38:00,77.0,36.4,29.95,South,182,8.3,9.6,23,0.00,,-RA,0.00,VWS V13.00,2013-04-08 20:38:00,
2013-04-08 16:43:00,77.2,36.5,29.95,SW,234,8.1,8.1,23,0.00,,-RA,0.00,VWS V13.00,2013-04-08 20:43:00,
2013-04-08 16:48:00,76.5,36.0,29.95,SW,219,5.8,10.1,23,0.00,,-RA,0.00,VWS V13.00,2013-04-08 20:48:00,
2013-04-08 16:53:00,76.3,35.8,29.95,SW,219,7.6,10.1,23,0.00,,-RA,0.00,VWS V13.00,2013-04-08 20:53:00,
2013-04-08 16:59:00,76.3,35.8,29.95,South,175,5.8,10.1,23,0.00,,-RA,0.00,VWS V13.00,2013-04-08 20:59:00,
2013-04-08 17:04:00,76.1,35.7,29.95,SW,222,2.7,6.3,23,0.00,,-RA,0.00,VWS V13.00,2013-04-08 21:04:00,
2013-04-08 17:09:00,75.6,35.2,29.95,SSE,155,8.3,8.3,23,0.00,,-RA,0.00,VWS V13.00,2013-04-08 21:09:00,
2013-04-08 17:14:00,75.2,36.0,29.95,SSE,150,5.4,8.3,24,0.00,,-RA,0.00,VWS V13.00,2013-04-08 21:14:00,
2013-04-08 17:19:00,74.8,35.7,29.95,SW,218,7.2,10.1,24,0.00,,-RA,0.00,VWS V13.00,2013-04-08 21:19:00,
2013-04-08 17:24:00,74.3,36.2,29.95,SW,227,5.4,8.7,25,0.00,,-RA,0.00,VWS V13.00,2013-04-08 21:24:00,
2013-04-08 17:29:00,74.1,36.1,29.95,South,181,7.6,10.1,25,0.00,,-RA,0.00,VWS V13.00,2013-04-08 21:29:00,
2013-04-08 17:34:00,73.6,35.6,29.95,SSW,202,5.4,10.1,25,0.00,,-RA,0.00,VWS V13.00,2013-04-08 21:34:00,
2013-04-08 17:40:00,73.9,36.9,29.95,South,175,5.4,10.1,26,0.00,,CLR,0.00,VWS V13.00,2013-04-08 21:40:00,
2013-04-08 17:45:00,73.6,36.6,29.95,South,183,5.4,8.1,26,0.00,,-RA,0.00,VWS V13.00,2013-04-08 21:45:00,
2013-04-08 17:50:00,73.2,37.3,29.95,South,170,6.7,8.1,27,0.00,,CLR,0.00,VWS V13.00,2013-04-08 21:50:00,
2013-04-08 17:55:00,72.9,37.9,29.95,SW,214,4.0,8.3,28,0.00,,-RA,0.00,VWS V13.00,2013-04-08 21:55:00,
2013-04-08 18:00:00,72.3,37.4,29.95,SW,223,6.7,8.3,28,0.00,,-RA,0.00,VWS V13.00,2013-04-08 22:00:00,
2013-04-08 18:05:00,72.0,38.0,29.95,South,184,2.7,6.7,29,0.00,,-RA,0.00,VWS V13.00,2013-04-08 22:05:00,
2013-04-08 18:10:00,71.8,37.8,29.95,South,186,4.9,6.7,29,0.00,,-RA,0.00,VWS V13.00,2013-04-08 22:10:00,
2013-04-08 18:15:00,71.6,38.6,29.95,SSW,204,5.4,6.7,30,0.00,,-RA,0.00,VWS V13.00,2013-04-08 22:15:00,
2013-04-08 18:20:00,71.4,39.2,29.95,South,188,4.9,8.3,31,0.00,,-RA,0.00,VWS V13.00,2013-04-08 22:20:00,
2013-04-08 18:25:00,71.2,39.1,29.95,SSW,202,5.4,5.8,31,0.00,,-RA,0.00,VWS V13.00,2013-04-08 22:25:00,
2013-04-08 18:30:00,70.9,39.6,29.95,SW,219,4.0,7.2,32,0.00,,-RA,0.00,VWS V13.00,2013-04-08 22:30:00,
2013-04-08 18:35:00,70.7,39.4,29.95,SSW,211,5.4,7.2,32,0.00,,-RA,0.00,VWS V13.00,2013-04-08 22:35:00,
2013-04-08 18:40:00,70.5,39.3,29.95,SSW,204,4.0,5.8,32,0.00,,-RA,0.00,VWS V13.00,2013-04-08 22:40:00,
2013-04-08 18:45:00,70.3,39.1,29.95,SSW,212,4.0,6.3,32,0.00,,-RA,0.00,VWS V13.00,2013-04-08 22:45:00,
2013-04-08 18:51:00,70.0,38.8,29.95,SSW,204,5.8,7.6,32,0.00,,-RA,0.00,VWS V13.00,2013-04-08 22:51:00,
2013-04-08 18:56:00,69.8,38.6,29.95,South,172,3.6,7.6,32,0.00,,-RA,0.00,VWS V13.00,2013-04-08 22:56:00,
2013-04-08 19:02:00,69.4,39.1,29.95,SSW,197,5.4,6.3,33,0.00,,-RA,0.00,VWS V13.00,2013-04-08 23:02:00,
2013-04-08 19:07:00,69.1,38.8,29.95,SW,217,5.4,6.7,33,0.00,,-RA,0.00,VWS V13.00,2013-04-08 23:07:00,
2013-04-08 19:13:00,68.7,38.5,29.95,SSW,207,2.7,6.7,33,0.00,,-RA,0.00,VWS V13.00,2013-04-08 23:13:00,
2013-04-08 19:18:00,68.4,38.2,29.95,South,182,3.6,6.7,33,0.00,,-RA,0.00,VWS V13.00,2013-04-08 23:18:00,
2013-04-08 19:23:00,68.2,38.0,29.95,SSW,194,3.6,6.3,33,0.00,,-RA,0.00,VWS V13.00,2013-04-08 23:23:00,
2013-04-08 19:28:00,67.8,38.5,29.95,SSW,204,6.3,6.3,34,0.00,,-RA,0.00,VWS V13.00,2013-04-08 23:28:00,
2013-04-08 19:33:00,67.6,38.3,29.95,SSE,151,12.8,12.8,34,0.00,,-RA,0.00,VWS V13.00,2013-04-08 23:33:00,
2013-04-08 19:38:00,67.3,38.7,29.95,South,172,5.4,12.8,35,0.00,,-RA,0.00,VWS V13.00,2013-04-08 23:38:00,
2013-04-08 19:43:00,67.1,39.3,29.95,South,178,6.3,8.3,36,0.00,,-RA,0.00,VWS V13.00,2013-04-08 23:43:00,
2013-04-08 19:48:00,66.9,39.8,29.95,South,177,6.3,10.5,37,0.00,,-RA,0.00,VWS V13.00,2013-04-08 23:48:00,
2013-04-08 19:53:00,66.6,39.5,29.95,SSE,149,5.8,10.5,37,0.00,,-RA,0.00,VWS V13.00,2013-04-08 23:53:00,
2013-04-08 19:58:00,66.2,39.2,29.95,SSE,149,4.0,10.5,37,0.00,,-RA,0.00,VWS V13.00,2013-04-08 23:58:00,
2013-04-08 20:03:00,66.0,39.7,29.95,South,175,7.6,7.6,38,0.00,,-RA,0.00,VWS V13.00,2013-04-09 00:03:00,
2013-04-08 20:08:00,65.8,39.5,29.95,SSE,168,6.3,7.6,38,0.00,,BKN100,0.00,VWS V13.00,2013-04-09 00:08:00,
2013-04-08 20:13:00,65.7,40.0,29.95,South,184,7.6,10.5,39,0.00,,BKN100,0.00,VWS V13.00,2013-04-09 00:13:00,
2013-04-08 20:18:00,65.3,39.7,29.95,SSW,193,5.4,10.5,39,0.00,,BKN100,0.00,VWS V13.00,2013-04-09 00:18:00,
2013-04-08 20:23:00,65.1,40.2,29.95,SSE,154,4.0,5.8,40,0.00,,BKN100,0.00,VWS V13.00,2013-04-09 00:23:00,
2013-04-08 20:29:00,64.9,40.1,29.95,South,169,3.6,8.1,40,0.00,,BKN100,0.00,VWS V13.00,2013-04-09 00:29:00,
2013-04-08 20:34:00,64.6,39.7,29.95,South,183,3.6,8.1,40,0.00,,BKN100,0.00,VWS V13.00,2013-04-09 00:34:00,
2013-04-08 20:39:00,64.4,40.2,29.95,SSE,157,3.1,8.1,41,0.00,,BKN100,0.00,VWS V13.00,2013-04-09 00:39:00,
2013-04-08 20:44:00,64.2,40.7,29.95,South,177,4.0,5.8,42,0.00,,BKN100,0.00,VWS V13.00,2013-04-09 00:44:00,
2013-04-08 20:49:00,64.0,41.1,29.95,South,179,4.0,6.7,43,0.00,,BKN100,0.00,VWS V13.00,2013-04-09 00:49:00,
2013-04-08 20:56:00,63.9,41.0,29.95,SSW,200,5.4,6.7,43,0.00,,BKN100,0.00,VWS V13.00,2013-04-09 00:56:00,
2013-04-08 21:03:00,64.0,41.1,29.95,SSE,165,4.9,6.3,43,0.00,,BKN100,0.00,VWS V13.00,2013-04-09 01:03:00,
2013-04-08 21:08:00,63.9,41.0,29.95,SSE,159,2.7,6.3,43,0.00,,BKN100,0.00,VWS V13.00,2013-04-09 01:08:00,
2013-04-08 21:13:00,63.9,41.5,29.95,SSE,153,4.9,8.1,44,0.00,,BKN100,0.00,VWS V13.00,2013-04-09 01:13:00,
2013-04-08 21:18:00,63.5,41.2,29.95,SSE,162,5.8,8.1,44,0.00,,BKN100,0.00,VWS V13.00,2013-04-09 01:18:00,
2013-04-08 21:23:00,63.3,41.1,29.95,South,187,5.8,8.1,44,0.00,,BKN100,0.00,VWS V13.00,2013-04-09 01:23:00,
2013-04-08 21:28:00,63.1,40.9,29.95,South,180,5.4,8.1,44,0.00,,BKN100,0.00,VWS V13.00,2013-04-09 01:28:00,
2013-04-08 21:34:00,63.0,40.7,29.95,SSW,213,3.6,8.1,44,0.00,,FEW110,0.00,VWS V13.00,2013-04-09 01:34:00,
2013-04-08 21:39:00,62.8,41.2,29.95,South,190,4.9,8.1,45,0.00,,FEW110,0.00,VWS V13.00,2013-04-09 01:39:00,
2013-04-08 21:44:00,62.6,41.0,29.95,SSE,155,5.4,8.3,45,0.00,,FEW110,0.00,VWS V13.00,2013-04-09 01:44:00,
2013-04-08 21:50:00,62.4,40.8,29.95,South,176,4.0,8.3,45,0.00,,FEW110,0.00,VWS V13.00,2013-04-09 01:50:00,
2013-04-08 21:55:00,62.4,41.4,29.95,SSE,159,6.3,8.3,46,0.00,,FEW110,0.00,VWS V13.00,2013-04-09 01:55:00,
2013-04-08 22:00:00,62.2,41.2,29.95,South,184,5.8,8.3,46,0.00,,FEW110,0.00,VWS V13.00,2013-04-09 02:00:00,
2013-04-08 22:05:00,62.2,41.2,29.95,South,176,5.8,6.3,46,0.00,,FEW110,0.00,VWS V13.00,2013-04-09 02:05:00,
2013-04-08 22:10:00,62.2,41.2,29.95,South,181,5.4,7.6,46,0.00,,FEW110,0.00,VWS V13.00,2013-04-09 02:10:00,
2013-04-08 22:15:00,62.2,41.8,29.95,South,186,4.0,8.1,47,0.00,,FEW110,0.00,VWS V13.00,2013-04-09 02:15:00,
2013-04-08 22:20:00,62.2,41.8,29.95,South,189,4.9,8.3,47,0.00,,FEW110,0.00,VWS V13.00,2013-04-09 02:20:00,
2013-04-08 22:25:00,62.1,41.6,29.95,South,179,5.4,6.3,47,0.00,,FEW110,0.00,VWS V13.00,2013-04-09 02:25:00,
2013-04-08 22:30:00,62.1,41.6,29.95,SSW,208,4.0,8.1,47,0.00,,FEW110,0.00,VWS V13.00,2013-04-09 02:30:00,
2013-04-08 22:36:00,62.1,41.6,29.95,SSW,199,5.8,8.7,47,0.00,,SCT110,0.00,VWS V13.00,2013-04-09 02:36:00,
2013-04-08 22:41:00,61.9,41.5,29.95,SSW,195,3.6,3.6,47,0.00,,SCT110,0.00,VWS V13.00,2013-04-09 02:41:00,
2013-04-08 22:46:00,61.7,41.3,29.95,South,189,5.8,7.6,47,0.00,,SCT110,0.00,VWS V13.00,2013-04-09 02:46:00,
2013-04-08 22:51:00,61.7,41.8,29.95,South,180,5.4,7.6,48,0.00,,SCT110,0.00,VWS V13.00,2013-04-09 02:51:00,
2013-04-08 22:56:00,61.5,41.7,29.95,South,181,4.0,8.1,48,0.00,,SCT110,0.00,VWS V13.00,2013-04-09 02:56:00,
2013-04-08 23:01:00,61.3,41.5,29.95,SSE,165,4.0,8.3,48,0.00,,SCT110,0.00,VWS V13.00,2013-04-09 03:01:00,
2013-04-08 23:06:00,61.2,41.3,29.95,SSE,168,4.9,8.3,48,0.00,,SCT110,0.00,VWS V13.00,2013-04-09 03:06:00,
2013-04-08 23:11:00,61.2,41.3,29.95,SSE,159,7.6,8.3,48,0.00,,SCT110,0.00,VWS V13.00,2013-04-09 03:11:00,
2013-04-08 23:16:00,61.2,41.3,29.95,SSE,167,3.6,8.3,48,0.00,,SCT110,0.00,VWS V13.00,2013-04-09 03:16:00,
2013-04-08 23:21:00,61.0,41.2,29.95,South,191,4.0,5.4,48,0.00,,SCT110,0.00,VWS V13.00,2013-04-09 03:21:00,
2013-04-08 23:26:00,60.8,41.0,29.95,South,172,3.6,8.1,48,0.00,,SCT110,0.00,VWS V13.00,2013-04-09 03:26:00,
2013-04-08 23:32:00,60.6,41.4,29.95,South,173,5.8,8.1,49,0.00,,SCT110,0.00,VWS V13.00,2013-04-09 03:32:00,
2013-04-08 23:37:00,60.6,41.4,29.95,South,184,4.0,8.1,49,0.00,,SCT120,0.00,VWS V13.00,2013-04-09 03:37:00,
2013-04-08 23:42:00,60.6,41.4,29.95,SE,139,6.3,6.3,49,0.00,,SCT120,0.00,VWS V13.00,2013-04-09 03:42:00,
2013-04-08 23:47:00,60.4,41.2,29.95,SSW,201,2.7,6.3,49,0.00,,SCT120,0.00,VWS V13.00,2013-04-09 03:47:00,
2013-04-08 23:52:00,60.3,41.0,29.92,South,191,3.6,7.6,49,0.00,,SCT120,0.00,VWS V13.00,2013-04-09 03:52:00,
2013-04-08 23:57:00,60.1,40.9,29.92,SSW,210,2.7,7.6,49,0.00,,SCT120,0.00,VWS V13.00,2013-04-09 03:57:00,